createdAt,value
2019-02-27T00:01:30.330Z,100383.88
2019-02-27T00:03:57.194Z,100379.05
2019-02-27T00:06:23.912Z,100383.26
2019-02-27T00:08:50.661Z,100380.73
2019-02-27T00:11:17.409Z,100382.45
2019-02-27T00:13:44.266Z,100378.41
2019-02-27T00:16:11.667Z,100379.92
2019-02-27T00:18:38.617Z,100374.36
2019-02-27T00:21:05.355Z,100370.01
2019-02-27T00:23:33.679Z,100371.93
2019-02-27T00:26:00.413Z,100370.28
2019-02-27T00:28:28.032Z,100368.48
2019-02-27T00:30:54.768Z,100368.67
2019-02-27T00:33:25.044Z,100360.31
2019-02-27T00:35:50.525Z,100352.70
2019-02-27T00:38:17.261Z,100352.70
2019-02-27T00:40:44.624Z,100359.36
2019-02-27T00:43:11.359Z,100353.80
2019-02-27T00:45:40.028Z,100353.80
2019-02-27T00:48:06.704Z,100352.80
2019-02-27T00:50:33.414Z,100352.80
2019-02-27T00:53:00.260Z,100351.07
2019-02-27T00:55:27.022Z,100351.87
2019-02-27T00:57:54.502Z,100351.87
2019-02-27T01:00:22.029Z,100348.84
2019-02-27T01:02:52.597Z,100335.84
2019-02-27T01:05:17.868Z,100335.84
2019-02-27T01:07:44.647Z,100345.56
2019-02-27T01:10:12.250Z,100342.42
2019-02-27T01:12:39.863Z,100338.15
2019-02-27T01:15:07.936Z,100344.15
2019-02-27T01:17:35.424Z,100344.38
2019-02-27T01:20:02.596Z,100333.98
2019-02-27T01:22:29.477Z,100333.98
2019-02-27T01:24:57.023Z,100327.55
2019-02-27T01:27:23.757Z,100319.70
2019-02-27T01:29:51.628Z,100313.03
2019-02-27T01:32:18.708Z,100313.03
2019-02-27T01:34:45.543Z,100317.78
2019-02-27T01:37:12.268Z,100311.76
2019-02-27T01:39:38.993Z,100311.76
2019-02-27T01:42:05.740Z,100298.55
2019-02-27T01:44:32.454Z,100310.55
2019-02-27T01:47:01.936Z,100297.05
2019-02-27T01:49:27.866Z,100297.05
2019-02-27T01:51:54.754Z,100308.66
2019-02-27T01:54:21.518Z,100280.28
2019-02-27T01:56:48.950Z,100280.28
2019-02-27T01:59:16.883Z,100280.81
2019-02-27T02:01:45.985Z,100281.91
2019-02-27T02:04:13.050Z,100281.81
2019-02-27T02:06:39.779Z,100276.99
2019-02-27T02:09:25.952Z,100276.99
2019-02-27T02:11:52.718Z,100280.92
2019-02-27T02:14:54.303Z,100265.49
2019-02-27T02:17:32.376Z,100270.24
2019-02-27T02:20:40.488Z,100272.98
2019-02-27T02:23:21.217Z,100264.97
2019-02-27T02:26:08.858Z,100261.37
2019-02-27T02:29:29.877Z,100261.37
2019-02-27T02:32:03.954Z,100259.53
2019-02-27T02:35:07.709Z,100256.92
2019-02-27T02:38:17.240Z,100253.36
2019-02-27T02:41:20.547Z,100253.36
2019-02-27T02:45:02.877Z,100247.19
2019-02-27T02:47:44.065Z,100243.17
2019-02-27T02:50:53.930Z,100242.57
2019-02-27T02:54:04.674Z,100238.35
2019-02-27T02:56:53.132Z,100238.35
2019-02-27T02:59:46.630Z,100243.70
2019-02-27T03:02:42.674Z,100231.31
2019-02-27T03:06:00.121Z,100231.31
2019-02-27T03:08:36.048Z,100232.18
2019-02-27T03:11:54.733Z,100226.81
2019-02-27T03:14:53.151Z,100223.34
2019-02-27T03:17:54.866Z,100223.34
2019-02-27T03:21:17.792Z,100223.95
2019-02-27T03:23:59.097Z,100218.02
2019-02-27T03:27:03.603Z,100209.02
2019-02-27T03:30:03.232Z,100210.95
2019-02-27T03:32:53.946Z,100203.30
2019-02-27T03:35:59.874Z,100203.30
2019-02-27T03:39:00.503Z,100211.81
2019-02-27T03:42:04.102Z,100208.55
2019-02-27T03:44:56.205Z,100207.47
2019-02-27T03:48:06.730Z,100213.19
2019-02-27T03:50:51.676Z,100199.84
2019-02-27T03:53:29.371Z,100196.91
2019-02-27T03:56:33.182Z,100195.03
2019-02-27T03:59:46.673Z,100189.83
2019-02-27T04:02:47.886Z,100187.04
2019-02-27T04:05:52.621Z,100192.58
2019-02-27T04:08:54.683Z,100186.42
2019-02-27T04:11:24.900Z,100186.42
2019-02-27T04:13:51.655Z,100185.55
2019-02-27T04:16:18.411Z,100182.83
2019-02-27T04:18:45.138Z,100189.84
2019-02-27T04:21:11.885Z,100192.09
2019-02-27T04:23:38.609Z,100198.44
2019-02-27T04:26:06.575Z,100201.20
2019-02-27T04:28:33.486Z,100197.27
2019-02-27T04:31:00.538Z,100193.97
2019-02-27T04:33:27.276Z,100186.33
2019-02-27T04:35:54.005Z,100196.52
2019-02-27T04:38:20.745Z,100201.83
2019-02-27T04:40:47.475Z,100197.48
2019-02-27T04:43:14.209Z,100191.56
2019-02-27T04:45:40.961Z,100188.07
2019-02-27T04:48:07.663Z,100189.31
2019-02-27T04:50:35.613Z,100189.31
2019-02-27T04:53:02.335Z,100193.10
2019-02-27T04:55:29.369Z,100194.86
2019-02-27T04:57:56.399Z,100195.42
2019-02-27T05:00:26.032Z,100197.22
2019-02-27T05:02:53.542Z,100200.19
2019-02-27T05:05:20.833Z,100196.17
2019-02-27T05:07:47.569Z,100201.88
2019-02-27T05:10:14.319Z,100198.33
2019-02-27T05:12:41.056Z,100198.33
2019-02-27T05:15:10.686Z,100246.84
2019-02-27T05:17:37.398Z,100204.43
2019-02-27T05:20:04.331Z,100204.43
2019-02-27T05:22:31.245Z,100201.48
2019-02-27T05:24:57.939Z,100201.48
2019-02-27T05:27:24.703Z,100215.84
2019-02-27T05:29:51.402Z,100204.45
2019-02-27T05:32:18.467Z,100212.12
2019-02-27T05:34:49.538Z,100197.02
2019-02-27T05:37:13.839Z,100227.88
2019-02-27T05:39:40.575Z,100206.91
2019-02-27T05:42:07.295Z,100207.53
2019-02-27T05:44:34.339Z,100206.23
2019-02-27T05:47:01.064Z,100199.27
2019-02-27T05:49:27.773Z,100204.66
2019-02-27T05:51:54.635Z,100208.20
2019-02-27T05:54:21.343Z,100197.31
2019-02-27T05:56:49.744Z,100232.97
2019-02-27T05:59:18.908Z,100200.67
2019-02-27T06:01:45.643Z,100193.79
2019-02-27T06:04:12.782Z,100186.23
2019-02-27T06:06:44.862Z,100186.23
2019-02-27T06:09:10.384Z,100191.58
2019-02-27T06:11:39.019Z,100240.51
2019-02-27T06:14:05.769Z,100202.45
2019-02-27T06:16:37.013Z,100195.91
2019-02-27T06:19:03.850Z,100210.19
2019-02-27T06:21:31.641Z,100195.75
2019-02-27T06:23:58.388Z,100199.26
2019-02-27T06:26:25.827Z,100200.97
2019-02-27T06:28:52.571Z,100206.58
2019-02-27T06:31:25.143Z,100197.78
2019-02-27T06:33:52.019Z,100194.25
2019-02-27T06:36:18.770Z,100236.78
2019-02-27T06:38:45.486Z,100191.07
2019-02-27T06:41:15.410Z,100186.56
2019-02-27T06:43:40.889Z,100183.66
2019-02-27T06:46:07.590Z,100182.62
2019-02-27T06:48:43.549Z,100179.35
2019-02-27T06:51:10.359Z,100172.81
2019-02-27T06:54:20.817Z,100185.02
2019-02-27T06:56:47.568Z,100205.45
2019-02-27T06:59:14.437Z,100219.71
2019-02-27T07:01:45.030Z,100175.27
2019-02-27T07:04:12.051Z,100177.14
2019-02-27T07:06:39.151Z,100218.05
2019-02-27T07:09:11.321Z,100180.70
2019-02-27T07:11:34.696Z,100176.52
2019-02-27T07:14:01.487Z,100173.92
2019-02-27T07:16:28.461Z,100169.32
2019-02-27T07:18:55.451Z,100168.91
2019-02-27T07:21:22.189Z,100174.26
2019-02-27T07:23:48.927Z,100163.97
2019-02-27T07:26:15.997Z,100162.73
2019-02-27T07:28:45.932Z,100165.25
2019-02-27T07:31:17.516Z,100165.55
2019-02-27T07:33:44.409Z,100163.68
2019-02-27T07:36:11.164Z,100211.27
2019-02-27T07:38:37.920Z,100159.59
2019-02-27T07:41:04.676Z,100167.03
2019-02-27T07:43:31.652Z,100157.44
2019-02-27T07:45:58.428Z,100157.84
2019-02-27T07:48:26.806Z,100157.84
2019-02-27T07:50:53.539Z,100159.92
2019-02-27T07:53:20.266Z,100159.94
2019-02-27T07:55:47.467Z,100158.17
2019-02-27T07:58:14.355Z,100151.14
2019-02-27T08:00:43.542Z,100151.14
2019-02-27T08:03:12.959Z,100162.37
2019-02-27T08:05:38.930Z,100164.91
2019-02-27T08:08:05.750Z,100161.83
2019-02-27T08:10:36.775Z,100164.18
2019-02-27T08:13:03.108Z,100161.64
2019-02-27T08:15:30.399Z,100153.06
2019-02-27T08:17:58.633Z,100153.06
2019-02-27T08:20:25.571Z,100150.30
2019-02-27T08:22:52.510Z,100150.22
2019-02-27T08:25:19.404Z,100150.22
2019-02-27T08:27:46.168Z,100151.00
2019-02-27T08:30:15.436Z,100159.99
2019-02-27T08:32:42.186Z,100154.92
2019-02-27T08:35:08.987Z,100160.47
2019-02-27T08:37:36.418Z,100160.47
2019-02-27T08:40:03.858Z,100157.97
2019-02-27T08:42:30.618Z,100152.63
2019-02-27T08:44:57.357Z,100153.20
2019-02-27T08:47:24.122Z,100153.20
2019-02-27T08:49:51.006Z,100149.05
2019-02-27T08:52:17.781Z,100130.95
2019-02-27T08:54:47.416Z,100138.08
2019-02-27T08:57:14.448Z,100138.08
2019-02-27T08:59:41.446Z,100133.64
2019-02-27T09:02:08.166Z,100127.16
2019-02-27T09:04:35.112Z,100126.42
2019-02-27T09:07:03.420Z,100116.38
2019-02-27T09:09:30.948Z,100119.20
2019-02-27T09:11:58.147Z,100124.41
2019-02-27T09:14:24.994Z,100118.63
2019-02-27T09:16:51.987Z,100116.45
2019-02-27T09:19:20.607Z,100112.19
2019-02-27T09:21:47.461Z,100112.19
2019-02-27T09:24:14.272Z,100106.75
2019-02-27T09:26:42.353Z,100106.08
2019-02-27T09:29:09.778Z,100097.45
2019-02-27T09:31:37.675Z,100090.91
2019-02-27T09:34:05.494Z,100107.55
2019-02-27T09:36:34.230Z,100080.63
2019-02-27T09:39:03.678Z,100081.44
2019-02-27T09:41:32.304Z,100086.39
2019-02-27T09:44:01.330Z,100081.40
2019-02-27T09:46:27.788Z,100081.44
2019-02-27T09:48:56.306Z,100070.19
2019-02-27T09:51:23.071Z,100066.80
2019-02-27T09:53:49.968Z,100065.23
2019-02-27T09:56:17.126Z,100056.17
2019-02-27T09:58:45.641Z,100065.45
2019-02-27T10:01:16.234Z,100048.16
2019-02-27T10:03:43.146Z,100096.26
2019-02-27T10:06:09.868Z,100039.06
2019-02-27T10:08:36.988Z,100040.31
2019-02-27T10:11:03.914Z,100037.37
2019-02-27T10:13:31.088Z,100045.25
2019-02-27T10:16:01.348Z,100043.52
2019-02-27T10:18:26.832Z,100036.08
2019-02-27T10:20:54.932Z,100033.06
2019-02-27T10:23:21.665Z,100025.55
2019-02-27T10:25:49.913Z,100029.11
2019-02-27T10:28:16.999Z,100025.34
2019-02-27T10:30:44.190Z,100024.44
2019-02-27T10:33:11.924Z,100021.36
2019-02-27T10:35:38.888Z,100016.28
2019-02-27T10:38:08.487Z,100013.00
2019-02-27T10:40:36.014Z,100012.86
2019-02-27T10:43:02.788Z,100015.64
2019-02-27T10:45:29.693Z,100004.38
2019-02-27T10:47:56.667Z,100000.78
2019-02-27T10:50:24.754Z,100003.08
2019-02-27T10:52:53.226Z,100033.16
2019-02-27T10:55:23.333Z,99999.52
2019-02-27T10:57:50.105Z,99984.19
2019-02-27T11:00:29.092Z,99982.41
2019-02-27T11:02:55.838Z,99983.03
2019-02-27T11:05:22.906Z,99985.77
2019-02-27T11:07:52.966Z,99968.53
2019-02-27T11:10:19.000Z,99963.81
2019-02-27T11:12:49.067Z,99958.31
2019-02-27T11:15:15.982Z,99958.09
2019-02-27T11:17:43.385Z,99963.97
2019-02-27T11:20:12.626Z,99948.05
2019-02-27T11:22:41.441Z,99941.98
2019-02-27T11:25:11.431Z,99933.52
2019-02-27T11:27:40.235Z,99960.70
2019-02-27T11:30:13.123Z,99928.53
2019-02-27T11:32:39.855Z,99924.83
2019-02-27T11:35:06.813Z,99924.55
2019-02-27T11:37:33.740Z,99923.46
2019-02-27T11:40:01.118Z,99926.11
2019-02-27T11:42:28.985Z,99925.30
2019-02-27T11:44:57.175Z,99912.48
2019-02-27T11:47:24.151Z,99906.89
2019-02-27T11:49:50.925Z,99897.23
2019-02-27T11:52:17.678Z,99890.80
2019-02-27T11:54:44.425Z,99882.74
2019-02-27T11:57:11.371Z,99881.09
2019-02-27T11:59:38.157Z,99881.84
2019-02-27T12:02:05.279Z,99878.03
2019-02-27T12:04:32.029Z,99872.64
2019-02-27T12:06:59.089Z,99870.19
2019-02-27T12:09:25.826Z,99867.45
2019-02-27T12:11:53.059Z,99865.02
2019-02-27T12:14:19.735Z,99858.50
2019-02-27T12:16:48.604Z,99857.63
2019-02-27T12:19:18.077Z,99847.17
2019-02-27T12:21:45.096Z,99853.77
2019-02-27T12:24:11.949Z,99840.33
2019-02-27T12:26:38.641Z,99847.34
2019-02-27T12:29:05.371Z,99832.49
2019-02-27T12:31:32.109Z,99839.84
2019-02-27T12:34:02.458Z,99834.11
2019-02-27T12:36:27.595Z,99834.53
2019-02-27T12:38:58.199Z,99828.50
2019-02-27T12:41:25.017Z,99824.94
2019-02-27T12:43:52.731Z,99804.66
2019-02-27T12:46:20.361Z,99798.65
2019-02-27T12:48:47.537Z,99801.25
2019-02-27T12:51:14.414Z,99794.70
2019-02-27T12:53:42.765Z,99791.51
2019-02-27T12:56:11.941Z,99798.73
2019-02-27T12:58:38.717Z,99785.70
2019-02-27T13:01:05.491Z,99804.33
2019-02-27T13:03:32.437Z,99793.63
2019-02-27T13:06:01.001Z,99782.45
2019-02-27T13:08:28.144Z,99784.34
2019-02-27T13:10:57.601Z,99774.18
2019-02-27T13:13:25.884Z,99766.98
2019-02-27T13:15:53.254Z,99767.17
2019-02-27T13:18:20.164Z,99759.39
2019-02-27T13:20:46.992Z,99757.72
2019-02-27T13:23:13.979Z,99760.09
2019-02-27T13:25:40.747Z,99747.91
2019-02-27T13:28:07.698Z,99741.44
2019-02-27T13:30:34.641Z,99779.31
2019-02-27T13:33:02.225Z,99750.50
2019-02-27T13:35:29.317Z,99727.77
2019-02-27T13:37:58.593Z,99728.49
2019-02-27T13:40:25.332Z,99726.31
2019-02-27T13:42:53.344Z,99726.13
2019-02-27T13:45:22.065Z,99723.03
2019-02-27T13:47:49.416Z,99706.84
2019-02-27T13:50:16.840Z,99711.34
2019-02-27T13:52:44.505Z,99702.05
2019-02-27T13:55:13.544Z,99700.47
2019-02-27T13:57:40.451Z,99695.05
2019-02-27T14:00:13.265Z,99685.69
2019-02-27T14:02:40.566Z,99670.86
2019-02-27T14:05:07.740Z,99675.86
2019-02-27T14:07:34.573Z,99669.64
2019-02-27T14:10:01.301Z,99667.91
2019-02-27T14:12:29.987Z,99671.73
2019-02-27T14:14:57.082Z,99663.88
2019-02-27T14:17:23.812Z,99654.22
2019-02-27T14:19:50.552Z,99652.07
2019-02-27T14:22:17.282Z,99657.95
2019-02-27T14:24:44.337Z,99661.14
2019-02-27T14:27:11.985Z,99657.26
2019-02-27T14:29:41.294Z,99652.55
2019-02-27T14:32:08.295Z,99651.56
2019-02-27T14:34:35.026Z,99651.95
2019-02-27T14:37:01.929Z,99647.48
2019-02-27T14:39:29.705Z,99652.67
2019-02-27T14:41:57.201Z,99646.76
2019-02-27T14:44:23.965Z,99635.78
2019-02-27T14:46:50.865Z,99634.56
2019-02-27T14:49:17.596Z,99643.79
2019-02-27T14:51:44.316Z,99620.47
2019-02-27T14:54:11.043Z,99616.34
2019-02-27T14:56:37.935Z,99620.56
2019-02-27T14:59:04.827Z,99615.13
2019-02-27T15:01:32.025Z,99611.08
2019-02-27T15:04:01.509Z,99614.61
2019-02-27T15:06:28.571Z,99614.31
2019-02-27T15:08:58.150Z,99606.39
2019-02-27T15:11:23.907Z,99636.48
2019-02-27T15:13:50.935Z,99608.99
2019-02-27T15:16:17.778Z,99607.30
2019-02-27T15:18:46.165Z,99611.77
2019-02-27T15:21:13.731Z,99604.73
2019-02-27T15:23:40.647Z,99595.14
2019-02-27T15:26:07.510Z,99600.27
2019-02-27T15:28:34.344Z,99593.27
2019-02-27T15:31:01.042Z,99619.73
2019-02-27T15:33:32.229Z,99589.09
2019-02-27T15:35:58.991Z,99579.81
2019-02-27T15:38:26.848Z,99577.40
2019-02-27T15:40:53.780Z,99580.25
2019-02-27T15:43:20.488Z,99571.61
2019-02-27T15:45:48.849Z,99567.96
2019-02-27T15:48:17.914Z,99567.22
2019-02-27T15:50:44.707Z,99566.08
2019-02-27T15:53:15.186Z,99573.45
2019-02-27T15:55:42.783Z,99558.11
2019-02-27T15:58:10.740Z,99563.08
2019-02-27T16:00:37.618Z,99565.95
2019-02-27T16:03:04.322Z,99558.37
2019-02-27T16:05:31.784Z,99558.84
2019-02-27T16:07:58.571Z,99547.83
2019-02-27T16:10:25.400Z,99548.77
2019-02-27T16:12:52.141Z,99546.19
2019-02-27T16:15:18.874Z,99539.91
2019-02-27T16:17:45.706Z,99538.13
2019-02-27T16:20:16.155Z,99540.67
2019-02-27T16:22:42.452Z,99538.90
2019-02-27T16:25:10.855Z,99537.38
2019-02-27T16:27:38.760Z,99539.61
2019-02-27T16:30:07.814Z,99534.12
2019-02-27T16:32:34.569Z,99535.80
2019-02-27T16:35:04.328Z,99527.07
2019-02-27T16:37:31.486Z,99526.97
2019-02-27T16:39:58.583Z,99530.84
2019-02-27T16:42:25.689Z,99528.02
2019-02-27T16:44:54.369Z,99525.47
2019-02-27T16:47:23.738Z,99526.96
2019-02-27T16:49:54.239Z,99526.73
2019-02-27T16:52:21.218Z,99527.92
2019-02-27T16:54:50.623Z,99533.99
2019-02-27T16:57:20.525Z,99533.00
2019-02-27T16:59:49.124Z,99531.51
2019-02-27T17:02:16.251Z,99524.67
2019-02-27T17:04:42.975Z,99520.54
2019-02-27T17:07:09.911Z,99519.44
2019-02-27T17:09:36.903Z,99544.19
2019-02-27T17:12:06.917Z,99516.55
2019-02-27T17:14:32.391Z,99522.55
2019-02-27T17:16:59.676Z,99522.95
2019-02-27T17:19:26.886Z,99518.51
2019-02-27T17:21:58.416Z,99515.96
2019-02-27T17:24:22.541Z,99511.78
2019-02-27T17:26:49.727Z,99507.05
2019-02-27T17:29:16.679Z,99536.02
2019-02-27T17:31:49.440Z,99506.42
2019-02-27T17:34:13.763Z,99507.06
2019-02-27T17:36:41.132Z,99513.27
2019-02-27T17:39:08.395Z,99518.68
2019-02-27T17:41:35.229Z,99514.23
2019-02-27T17:44:05.219Z,99511.64
2019-02-27T17:46:30.959Z,99515.74
2019-02-27T17:48:58.277Z,99517.73
2019-02-27T17:51:25.107Z,99518.84
2019-02-27T17:53:51.868Z,99527.47
2019-02-27T17:56:19.108Z,99520.90
2019-02-27T17:58:46.186Z,99511.39
2019-02-27T18:01:15.832Z,99517.03
2019-02-27T18:03:42.535Z,99514.19
2019-02-27T18:06:09.600Z,99515.03
2019-02-27T18:08:38.918Z,99528.35
2019-02-27T18:11:05.620Z,99521.02
2019-02-27T18:13:35.371Z,99535.27
2019-02-27T18:16:01.091Z,99518.89
2019-02-27T18:18:28.012Z,99521.68
2019-02-27T18:20:59.466Z,99514.83
2019-02-27T18:23:26.416Z,99511.19
2019-02-27T18:25:53.210Z,99510.42
2019-02-27T18:28:19.965Z,99510.72
2019-02-27T18:30:46.748Z,99515.81
2019-02-27T18:33:15.540Z,99517.72
2019-02-27T18:35:42.158Z,99512.66
2019-02-27T18:38:08.956Z,99516.97
2019-02-27T18:40:36.665Z,99508.23
2019-02-27T18:43:03.415Z,99512.75
2019-02-27T18:45:32.048Z,99500.55
2019-02-27T18:47:59.019Z,99505.86
2019-02-27T18:50:27.199Z,99507.47
2019-02-27T18:52:54.210Z,99513.06
2019-02-27T18:55:20.940Z,99490.53
2019-02-27T18:57:47.772Z,99489.72
2019-02-27T19:00:19.351Z,99492.36
2019-02-27T19:02:46.142Z,99482.28
2019-02-27T19:05:13.140Z,99489.98
2019-02-27T19:07:40.015Z,99484.41
2019-02-27T19:10:07.624Z,99485.47
2019-02-27T19:12:34.508Z,99485.47
2019-02-27T19:15:01.370Z,99479.59
2019-02-27T19:17:31.546Z,99479.86
2019-02-27T19:19:56.710Z,99472.67
2019-02-27T19:22:23.452Z,99463.12
2019-02-27T19:24:50.161Z,99472.10
2019-02-27T19:27:18.389Z,99465.69
2019-02-27T19:29:45.665Z,99458.54
2019-02-27T19:32:16.242Z,99459.86
2019-02-27T19:34:44.719Z,99458.77
2019-02-27T19:37:11.973Z,99458.19
2019-02-27T19:39:38.672Z,99455.75
2019-02-27T19:42:05.420Z,99457.30
2019-02-27T19:44:32.244Z,99459.69
2019-02-27T19:46:59.110Z,99461.80
2019-02-27T19:49:25.945Z,99463.36
2019-02-27T19:51:54.778Z,99459.66
2019-02-27T19:54:21.350Z,99451.67
2019-02-27T19:56:50.546Z,99467.27
2019-02-27T19:59:17.282Z,99458.53
2019-02-27T20:01:48.404Z,99453.93
2019-02-27T20:04:12.843Z,99459.39
2019-02-27T20:06:39.556Z,99455.14
2019-02-27T20:09:07.962Z,98838.61
2019-02-27T20:11:40.200Z,99458.11
2019-02-27T20:14:09.178Z,99448.80
2019-02-27T20:16:35.909Z,99444.78
2019-02-27T20:19:02.615Z,99446.94
2019-02-27T20:21:31.328Z,99446.42
2019-02-27T20:24:01.445Z,99449.60
2019-02-27T20:26:26.865Z,99442.33
2019-02-27T20:28:53.602Z,99442.30
2019-02-27T20:31:23.204Z,99445.03
2019-02-27T20:33:49.932Z,99434.61
2019-02-27T20:36:17.088Z,99479.23
2019-02-27T20:38:43.896Z,99431.99
2019-02-27T20:41:10.716Z,99429.03
2019-02-27T20:43:37.440Z,99426.59
2019-02-27T20:46:04.272Z,99421.50
2019-02-27T20:48:32.248Z,99421.98
2019-02-27T20:51:02.727Z,99426.85
2019-02-27T20:53:29.177Z,99420.13
2019-02-27T20:55:56.199Z,99417.25
2019-02-27T20:58:26.310Z,99408.88
2019-02-27T21:00:53.060Z,99411.95
2019-02-27T21:03:19.857Z,99406.02
2019-02-27T21:05:48.476Z,99400.70
2019-02-27T21:08:15.342Z,99397.26
2019-02-27T21:10:42.107Z,99402.83
2019-02-27T21:13:09.126Z,99402.09
2019-02-27T21:15:35.847Z,99400.00
2019-02-27T21:18:02.561Z,99398.61
2019-02-27T21:20:29.416Z,99387.10
2019-02-27T21:22:56.288Z,99389.59
2019-02-27T21:25:23.009Z,99385.00
2019-02-27T21:27:49.750Z,99380.45
2019-02-27T21:30:18.746Z,99389.89
2019-02-27T21:32:45.624Z,99385.00
2019-02-27T21:35:12.344Z,99387.89
2019-02-27T21:37:44.596Z,99391.48
2019-02-27T21:40:09.242Z,99393.17
2019-02-27T21:42:35.968Z,99384.67
2019-02-27T21:45:09.681Z,99388.61
2019-02-27T21:47:38.361Z,99389.13
2019-02-27T21:50:07.140Z,99400.17
2019-02-27T21:52:34.200Z,99393.23
2019-02-27T21:55:00.959Z,99393.44
2019-02-27T21:57:27.676Z,99389.16
2019-02-27T21:59:54.443Z,99390.83
2019-02-27T22:02:21.376Z,99388.51
2019-02-27T22:04:48.360Z,99387.43
2019-02-27T22:07:15.081Z,99396.45
2019-02-27T22:09:44.608Z,99387.19
2019-02-27T22:12:11.100Z,99386.11
2019-02-27T22:14:38.029Z,99384.80
2019-02-27T22:17:05.831Z,99386.42
2019-02-27T22:19:34.893Z,99386.58
2019-02-27T22:22:01.822Z,99384.20
2019-02-27T22:24:28.669Z,99376.25
2019-02-27T22:26:55.399Z,99380.61
2019-02-27T22:29:25.143Z,99370.63
2019-02-27T22:31:51.856Z,99377.37
2019-02-27T22:34:18.626Z,99371.39
2019-02-27T22:36:45.338Z,99370.92
2019-02-27T22:39:12.033Z,99366.61
2019-02-27T22:41:40.677Z,99365.48
2019-02-27T22:44:07.530Z,99358.17
2019-02-27T22:46:34.649Z,99364.86
2019-02-27T22:49:01.403Z,99360.48
2019-02-27T22:51:28.303Z,99366.25
2019-02-27T22:53:55.211Z,99355.48
2019-02-27T22:56:21.983Z,99353.06
2019-02-27T22:58:51.426Z,99357.17
2019-02-27T23:01:31.334Z,99355.05
2019-02-27T23:04:08.233Z,99356.28
2019-02-27T23:06:38.020Z,99349.47
2019-02-27T23:09:09.165Z,99347.59
2019-02-27T23:11:36.785Z,99344.11
2019-02-27T23:14:05.741Z,99349.69
2019-02-27T23:16:32.897Z,99348.55
2019-02-27T23:18:59.642Z,99349.98
2019-02-27T23:21:26.785Z,99348.89
2019-02-27T23:23:54.467Z,99347.19
2019-02-27T23:26:21.617Z,99346.23
2019-02-27T23:28:48.347Z,99339.61
2019-02-27T23:31:22.217Z,99338.17
2019-02-27T23:33:45.692Z,99331.18
2019-02-27T23:36:12.499Z,99330.11
2019-02-27T23:38:39.393Z,99329.93
2019-02-27T23:41:06.102Z,99324.20
2019-02-27T23:43:34.882Z,99330.29
2019-02-27T23:46:02.215Z,99330.75
2019-02-27T23:48:29.276Z,99331.95
2019-02-27T23:50:56.069Z,99329.11
2019-02-27T23:53:24.418Z,99321.85
2019-02-27T23:55:51.641Z,99336.58
2019-02-27T23:58:18.427Z,99326.66
